Terminal Aerodrome Forecast
Issued by NWS

Current Version | Previous Version | Text Only | Print | Product List | Glossary On
Versions: 1 2 3 4 5 6 7 8 9 10 11 12 13 14 15 16 17 18
000
FTUS43 KMQT 022338
TAFSAW
TAF
KSAW 022338Z 0300/0324 02007KT P6SM SCT035 BKN070
     FM030200 30005KT P6SM SCT070
     FM031200 31009KT P6SM BKN060
     FM031600 31010G16KT P6SM VCSH BKN040=

USA.gov is the U.S. government's official web portal to all federal, state and local government web resources and services.